This is the latest recevied weather packets stored in our database for station/object N2ZVN. If no packets are shown the sender has not sent any weather packets the latest 10 day(s).
| Time | Temp. | Humidity | Pressure | Rain* | Wind** | Luminosity | Snow |
|---|---|---|---|---|---|---|---|
| 1777322467 | 16.11° C | 53% | 1020.7 hPa | 0 mm | - | 256 W/m² | - |
| 1777322163 | 16.11° C | 52% | 1020.8 hPa | 0 mm | - | 199 W/m² | - |
| 1777321860 | 16.11° C | 54% | 1020.9 hPa | 0 mm | - | 218 W/m² | - |
| 1777321556 | 16.11° C | 52% | 1020.8 hPa | 0 mm | - | 63 W/m² | - |
| 1777321254 | 16.11° C | 52% | 1020.9 hPa | 0 mm | - | 282 W/m² | - |
| 1777320951 | 15.56° C | 53% | 1020.9 hPa | 0 mm | - | 263 W/m² | - |
| 1777320649 | 15.56° C | 52% | 1021 hPa | 0 mm | - | 321 W/m² | - |
| 1777320345 | 15.56° C | 51% | 1021.3 hPa | 0 mm | - | 295 W/m² | - |
| 1777320042 | 16.11° C | 51% | 1021.3 hPa | 0 mm | - | 72 W/m² | - |
| 1777319739 | 16.11° C | 53% | 1021.7 hPa | 0 mm | - | 428 W/m² | - |
| 1777319436 | 16.11° C | 52% | 1021.7 hPa | 0 mm | - | 535 W/m² | - |
| 1777319133 | 16.11° C | 55% | 1021.8 hPa | 0 mm | - | 516 W/m² | - |
| 1777318830 | 16.11° C | 52% | 1022.1 hPa | 0 mm | - | 569 W/m² | - |
| 1777318527 | 16.11° C | 52% | 1022.3 hPa | 0 mm | - | 543 W/m² | - |
| 1777318224 | 16.11° C | 54% | 1022.2 hPa | 0 mm | - | 388 W/m² | - |
| 1777317920 | 16.11° C | 52% | 1022.3 hPa | 0 mm | - | 513 W/m² | - |
| 1777317617 | 16.11° C | 51% | 1022.3 hPa | 0 mm | - | 367 W/m² | - |
| 1777317315 | 15.56° C | 51% | 1022.4 hPa | 0 mm | - | 575 W/m² | - |
| 1777317009 | 16.11° C | 52% | 1022.5 hPa | 0 mm | - | 385 W/m² | - |
| 1777316708 | 16.11° C | 52% | 1022.5 hPa | 0 mm | - | 471 W/m² | - |
| 1777316403 | 15.56° C | 52% | 1022.5 hPa | 0 mm | - | 623 W/m² | - |
| 1777316101 | 15.56° C | 53% | 1022.6 hPa | 0 mm | - | 640 W/m² | - |
| 1777315799 | 16.11° C | 50% | 1022.8 hPa | 0 mm | - | 729 W/m² | - |
| 1777315497 | 16.11° C | 50% | 1022.7 hPa | 0 mm | - | 409 W/m² | - |
| 1777315195 | 16.11° C | 52% | 1022.7 hPa | 0 mm | - | 373 W/m² | - |
* Rain latest hour (hover to see other rain measurements)
** Current wind speed in m/s (hover to see current wind gust speed)